Time;durP1;ratioP1;P1;durP2;ratioP2;P2;SDS_P1;SDS_P2;PMS_P1;PMS_P2;Temp;Humidity;BMP_temperature;BMP_pressure;BME280_temperature;BME280_humidity;BME280_pressure;Samples;Min_cycle;Max_cycle;Signal;HPM_P1;HPM_P2
2023/10/03 00:00:34;;;;;;;0.00;0.00;;;19.10;91.70;;;;;;5024001;28;20087;-84
2023/10/03 00:03:04;;;;;;;0.00;0.00;;;19.00;91.80;;;;;;5024917;28;20468;-84
2023/10/03 00:05:31;;;;;;;0.00;0.00;;;18.90;92.10;;;;;;5022853;28;20305;-83
2023/10/03 00:08:04;;;;;;;0.00;0.00;;;18.90;92.20;;;;;;5018514;28;20164;-84
2023/10/03 00:10:30;;;;;;;0.00;0.00;;;18.90;92.20;;;;;;5022350;28;20045;-83
2023/10/03 00:12:56;;;;;;;0.00;0.00;;;18.90;92.30;;;;;;5025022;28;20079;-83
2023/10/03 00:15:24;;;;;;;0.00;0.00;;;18.90;92.30;;;;;;5024956;28;20046;-84
2023/10/03 00:17:51;;;;;;;0.00;0.00;;;18.90;92.40;;;;;;5025389;28;20029;-83
2023/10/03 00:20:18;;;;;;;;;;;18.90;92.50;;;;;;5024459;28;20345;-83
2023/10/03 00:22:44;;;;;;;0.00;0.00;;;18.90;92.40;;;;;;5022946;28;20379;-83
2023/10/03 00:25:17;;;;;;;0.00;0.00;;;18.80;92.60;;;;;;5024063;28;20053;-83
2023/10/03 00:27:46;;;;;;;0.00;0.00;;;18.80;92.80;;;;;;5025495;28;20030;-83
2023/10/03 00:30:14;;;;;;;0.00;0.00;;;18.60;92.90;;;;;;5024963;28;20120;-83
2023/10/03 00:32:42;;;;;;;0.10;0.10;;;18.60;93.00;;;;;;5025078;28;20079;-82
2023/10/03 00:35:08;;;;;;;0.10;0.10;;;18.60;93.20;;;;;;5025191;28;20136;-83
2023/10/03 00:37:35;;;;;;;0.00;0.00;;;18.60;93.00;;;;;;5024633;28;20384;-83
2023/10/03 00:40:16;;;;;;;0.03;0.03;;;18.70;92.90;;;;;;5021884;28;20192;-85
2023/10/03 00:42:44;;;;;;;0.00;0.00;;;18.70;93.10;;;;;;5022621;28;20108;-83
2023/10/03 00:45:11;;;;;;;0.00;0.00;;;18.70;93.10;;;;;;5025015;28;20853;-82
2023/10/03 00:47:36;;;;;;;0.03;0.03;;;18.70;93.00;;;;;;5023129;28;20029;-82
2023/10/03 00:50:06;;;;;;;0.00;0.00;;;18.70;93.00;;;;;;5024737;28;20045;-83
2023/10/03 00:52:32;;;;;;;0.57;0.57;;;18.60;93.00;;;;;;5024957;28;20033;-83
2023/10/03 00:55:00;;;;;;;0.00;0.00;;;18.40;93.40;;;;;;5031437;28;20042;-83
2023/10/03 00:57:27;;;;;;;0.65;0.52;;;18.20;93.70;;;;;;5023688;28;20029;-83
2023/10/03 00:59:57;;;;;;;0.00;0.00;;;17.90;94.20;;;;;;5017096;28;20599;-84
2023/10/03 01:02:22;;;;;;;0.80;0.75;;;17.80;94.60;;;;;;5024194;28;20044;-84
2023/10/03 01:04:49;;;;;;;0.00;0.00;;;18.00;94.90;;;;;;5023903;28;20472;-85
2023/10/03 01:07:14;;;;;;;0.00;0.00;;;18.00;94.80;;;;;;5023610;28;20025;-86
2023/10/03 01:09:40;;;;;;;0.00;0.00;;;18.00;95.20;;;;;;5024300;28;20033;-86
2023/10/03 01:12:06;;;;;;;0.00;0.00;;;18.00;95.50;;;;;;5021077;28;20124;-85
2023/10/03 01:14:37;;;;;;;0.00;0.00;;;18.00;95.60;;;;;;5022158;28;20408;-86
2023/10/03 01:17:06;;;;;;;0.00;0.00;;;17.90;96.00;;;;;;5020386;28;20754;-84
2023/10/03 01:19:32;;;;;;;0.00;0.00;;;17.80;96.20;;;;;;5022468;28;20029;-86
2023/10/03 01:21:59;;;;;;;0.00;0.00;;;17.70;96.60;;;;;;5023426;28;20041;-85
2023/10/03 01:24:25;;;;;;;0.08;0.08;;;17.70;96.90;;;;;;5022893;28;20390;-85
2023/10/03 01:26:52;;;;;;;0.00;0.00;;;17.70;97.20;;;;;;5018355;28;20033;-86
2023/10/03 01:29:21;;;;;;;0.00;0.00;;;17.70;97.50;;;;;;5020022;28;20023;-85
2023/10/03 01:31:48;;;;;;;0.10;0.10;;;17.70;97.70;;;;;;5019022;28;20142;-85
2023/10/03 01:34:15;;;;;;;0.10;0.10;;;17.70;97.80;;;;;;5023346;28;20030;-86
2023/10/03 01:36:45;;;;;;;0.00;0.00;;;17.70;97.70;;;;;;5022027;28;20021;-85
2023/10/03 01:39:12;;;;;;;0.00;0.00;;;17.70;97.90;;;;;;5023740;28;20053;-85
2023/10/03 01:41:40;;;;;;;0.00;0.00;;;17.70;98.30;;;;;;5022500;28;20100;-84
2023/10/03 01:44:06;;;;;;;0.00;0.00;;;17.50;99.00;;;;;;5022441;28;20021;-84
2023/10/03 01:46:32;;;;;;;0.00;0.00;;;17.40;99.40;;;;;;5019213;28;20043;-83
2023/10/03 01:48:58;;;;;;;0.00;0.00;;;17.40;99.90;;;;;;5022056;28;20284;-83
2023/10/03 01:51:24;;;;;;;0.10;0.10;;;17.40;99.90;;;;;;5020541;28;20035;-84
2023/10/03 01:53:50;;;;;;;0.00;0.00;;;17.30;99.90;;;;;;5020534;28;20524;-85
2023/10/03 01:56:15;;;;;;;0.65;0.65;;;17.30;99.90;;;;;;5022320;28;20152;-85
2023/10/03 01:58:41;;;;;;;0.00;0.00;;;17.30;99.90;;;;;;5021077;28;20104;-84
2023/10/03 02:01:07;;;;;;;0.00;0.00;;;17.50;99.90;;;;;;5020731;28;20040;-84
2023/10/03 02:03:35;;;;;;;0.17;0.17;;;17.50;99.90;;;;;;5021901;28;20527;-83
2023/10/03 02:06:01;;;;;;;0.40;0.40;;;17.50;99.90;;;;;;5019924;28;20041;-84
2023/10/03 02:08:26;;;;;;;0.00;0.00;;;17.50;99.90;;;;;;5021660;28;20090;-85
2023/10/03 02:10:53;;;;;;;0.00;0.00;;;17.50;99.90;;;;;;5021423;28;20022;-86
2023/10/03 02:13:21;;;;;;;0.38;0.25;;;17.50;99.90;;;;;;5021523;28;20037;-85
2023/10/03 02:15:54;;;;;;;0.00;0.00;;;17.50;99.90;;;;;;5021485;28;20037;-84
2023/10/03 02:18:21;;;;;;;0.00;0.00;;;17.40;99.90;;;;;;5020735;28;20079;-83
2023/10/03 02:21:01;;;;;;;;;;;17.40;99.90;;;;;;5022561;28;20102;-83
2023/10/03 02:23:27;;;;;;;0.08;0.08;;;17.40;99.90;;;;;;5020696;28;19913;-83
2023/10/03 02:26:12;;;;;;;0.00;0.00;;;17.40;99.90;;;;;;5020691;28;20049;-83
2023/10/03 02:28:39;;;;;;;0.03;0.03;;;17.40;99.90;;;;;;5021781;28;20397;-83
2023/10/03 02:31:07;;;;;;;0.00;0.00;;;17.40;99.90;;;;;;5015767;28;20273;-83
2023/10/03 02:33:40;;;;;;;0.00;0.00;;;17.40;99.90;;;;;;5021311;28;20116;-84
2023/10/03 02:36:07;;;;;;;0.00;0.00;;;17.40;99.90;;;;;;5020984;28;20033;-84
2023/10/03 02:38:36;;;;;;;0.10;0.10;;;17.60;99.90;;;;;;5021822;28;20030;-83
2023/10/03 02:41:02;;;;;;;0.00;0.00;;;17.70;99.90;;;;;;5021199;28;20055;-84
2023/10/03 02:43:30;;;;;;;0.10;0.10;;;17.70;99.90;;;;;;5017803;28;20034;-83
2023/10/03 02:45:56;;;;;;;0.00;0.00;;;17.70;99.90;;;;;;5019672;28;20159;-83
2023/10/03 02:48:22;;;;;;;0.00;0.00;;;17.90;99.90;;;;;;5020913;28;20125;-83
2023/10/03 02:50:50;;;;;;;0.00;0.00;;;17.90;99.90;;;;;;5019944;28;20036;-83
2023/10/03 02:53:22;;;;;;;0.00;0.00;;;17.90;99.90;;;;;;5020163;28;20037;-84
2023/10/03 02:55:50;;;;;;;0.00;0.00;;;18.00;99.90;;;;;;5020453;28;20095;-84
2023/10/03 02:58:19;;;;;;;0.30;0.30;;;18.00;99.90;;;;;;5022679;28;20026;-83
2023/10/03 03:00:53;;;;;;;0.00;0.00;;;18.10;99.90;;;;;;5020659;28;20140;-84
2023/10/03 03:03:19;;;;;;;0.00;0.00;;;18.10;99.90;;;;;;5042674;28;20635;-84
2023/10/03 03:05:48;;;;;;;0.90;0.75;;;18.20;99.90;;;;;;5022632;28;20444;-85
2023/10/03 03:10:42;;;;;;;0.00;0.00;;;18.20;99.90;;;;;;5024447;28;20041;-85
2023/10/03 03:13:08;;;;;;;0.00;0.00;;;18.30;99.90;;;;;;5023567;28;20034;-85
2023/10/03 03:15:37;;;;;;;0.00;0.00;;;18.30;99.60;;;;;;5026130;28;20029;-84
2023/10/03 03:18:03;;;;;;;0.00;0.00;;;18.40;99.50;;;;;;5024821;28;20029;-84
2023/10/03 03:20:36;;;;;;;0.00;0.00;;;18.60;99.10;;;;;;5024585;28;20434;-84
2023/10/03 03:23:03;;;;;;;0.00;0.00;;;18.50;99.00;;;;;;5026646;28;20087;-83
2023/10/03 03:25:38;;;;;;;0.00;0.00;;;18.60;99.10;;;;;;5025661;28;20615;-83
2023/10/03 03:28:13;;;;;;;0.00;0.00;;;18.60;99.00;;;;;;5026748;28;20042;-83
2023/10/03 03:30:45;;;;;;;0.45;0.45;;;18.60;99.00;;;;;;5025373;28;20033;-83
2023/10/03 03:33:19;;;;;;;0.10;0.10;;;18.50;99.10;;;;;;5025726;28;20034;-85
2023/10/03 03:35:46;;;;;;;0.00;0.00;;;18.60;99.00;;;;;;5024224;28;20025;-83
2023/10/03 03:38:18;;;;;;;0.15;0.15;;;18.70;98.90;;;;;;5025568;28;20580;-85
2023/10/03 03:40:56;;;;;;;0.00;0.00;;;18.60;98.90;;;;;;5024166;28;20029;-83
2023/10/03 03:43:22;;;;;;;0.05;0.05;;;18.60;99.00;;;;;;5026396;28;20032;-84
2023/10/03 03:45:48;;;;;;;;;;;18.70;98.80;;;;;;5026165;28;20037;-83
2023/10/03 03:48:15;;;;;;;0.00;0.00;;;18.70;98.70;;;;;;5025379;28;19913;-85
2023/10/03 03:50:41;;;;;;;0.00;0.00;;;18.80;98.60;;;;;;5025724;28;20593;-84
2023/10/03 03:53:07;;;;;;;0.00;0.00;;;18.80;98.60;;;;;;5025726;28;20041;-83
2023/10/03 03:55:35;;;;;;;0.00;0.00;;;18.80;98.50;;;;;;5025437;28;20108;-84
2023/10/03 03:58:05;;;;;;;0.00;0.00;;;18.80;98.50;;;;;;5024063;28;20101;-83
2023/10/03 04:00:32;;;;;;;0.00;0.00;;;18.80;98.50;;;;;;5025342;28;20056;-84
2023/10/03 04:03:00;;;;;;;0.00;0.00;;;18.80;98.40;;;;;;5024569;28;20892;-83
2023/10/03 04:05:27;;;;;;;0.00;0.00;;;18.70;98.40;;;;;;5021649;28;20859;-84
2023/10/03 04:07:54;;;;;;;2.60;2.40;;;18.80;98.20;;;;;;5024560;28;20079;-84
2023/10/03 04:10:21;;;;;;;0.00;0.00;;;18.80;98.30;;;;;;5024206;28;20033;-83
2023/10/03 04:12:49;;;;;;;0.00;0.00;;;18.70;98.40;;;;;;5025278;28;20057;-83
2023/10/03 04:15:15;;;;;;;0.00;0.00;;;18.80;98.60;;;;;;5024696;28;20068;-84
2023/10/03 04:17:42;;;;;;;;;;;18.80;98.70;;;;;;5026196;28;20025;-84
2023/10/03 04:20:19;;;;;;;0.00;0.00;;;18.90;98.60;;;;;;5025507;28;19909;-84
2023/10/03 04:22:46;;;;;;;0.00;0.00;;;18.90;98.60;;;;;;5020409;28;20037;-84
2023/10/03 04:25:15;;;;;;;0.05;0.05;;;18.90;98.60;;;;;;5024682;28;20433;-83
2023/10/03 04:27:41;;;;;;;0.00;0.00;;;19.00;98.50;;;;;;5024034;28;20445;-84
2023/10/03 04:30:13;;;;;;;0.27;0.20;;;18.90;98.40;;;;;;5025518;28;20032;-84
2023/10/03 04:32:42;;;;;;;0.00;0.00;;;19.00;98.40;;;;;;5021094;28;20032;-83
2023/10/03 04:35:12;;;;;;;0.00;0.00;;;18.90;98.80;;;;;;5023069;28;20053;-84
2023/10/03 04:37:42;;;;;;;0.10;0.10;;;19.00;98.70;;;;;;5024754;28;20025;-84
2023/10/03 04:40:22;;;;;;;0.00;0.00;;;18.90;98.90;;;;;;5025072;28;20117;-83
2023/10/03 04:42:51;;;;;;;0.13;0.13;;;18.90;99.30;;;;;;5014468;28;20095;-83
2023/10/03 04:45:18;;;;;;;0.10;0.10;;;18.90;99.40;;;;;;5024352;28;20091;-84
2023/10/03 04:47:46;;;;;;;0.10;0.10;;;18.90;99.90;;;;;;5024848;28;20033;-82
2023/10/03 04:50:17;;;;;;;0.10;0.10;;;18.90;99.90;;;;;;5021451;28;20033;-83
2023/10/03 04:52:43;;;;;;;0.00;0.00;;;18.90;99.90;;;;;;5024114;28;20036;-83
2023/10/03 04:55:09;;;;;;;0.00;0.00;;;18.60;99.90;;;;;;5023683;28;20688;-83
2023/10/03 04:57:35;;;;;;;3.80;0.93;;;18.60;99.90;;;;;;5025163;28;20026;-83
2023/10/03 05:00:03;;;;;;;0.00;0.00;;;18.70;99.90;;;;;;5024487;28;20022;-82
2023/10/03 05:02:30;;;;;;;0.93;0.93;;;18.60;99.90;;;;;;5022781;28;20424;-83
2023/10/03 05:04:56;;;;;;;0.28;0.28;;;18.60;99.90;;;;;;5024106;28;20022;-83
2023/10/03 05:07:25;;;;;;;0.00;0.00;;;18.70;99.90;;;;;;5024325;28;20072;-83
2023/10/03 05:09:51;;;;;;;0.00;0.00;;;18.70;99.90;;;;;;5023561;28;20483;-82
2023/10/03 05:12:18;;;;;;;0.00;0.00;;;18.50;99.90;;;;;;5018755;28;20034;-85
2023/10/03 05:14:46;;;;;;;0.00;0.00;;;18.60;99.90;;;;;;5035030;28;20048;-83
2023/10/03 05:17:13;;;;;;;0.20;0.20;;;18.60;99.90;;;;;;5020297;28;20025;-84
2023/10/03 05:19:39;;;;;;;0.00;0.00;;;18.60;99.90;;;;;;5017870;28;20027;-82
2023/10/03 05:22:08;;;;;;;0.00;0.00;;;18.50;99.90;;;;;;5021574;28;20528;-82
2023/10/03 05:24:34;;;;;;;0.00;0.00;;;18.60;99.90;;;;;;5022711;28;20504;-82
2023/10/03 05:27:00;;;;;;;0.00;0.00;;;18.50;99.90;;;;;;5021614;28;20481;-83
2023/10/03 05:29:27;;;;;;;0.10;0.10;;;18.50;99.90;;;;;;5021317;28;20499;-84
2023/10/03 05:31:54;;;;;;;0.10;0.10;;;18.40;99.90;;;;;;5018783;28;20034;-83
2023/10/03 05:34:22;;;;;;;0.00;0.00;;;18.40;99.90;;;;;;5018536;28;20048;-83
2023/10/03 05:36:49;;;;;;;0.00;0.00;;;18.40;99.90;;;;;;5021788;28;20044;-84
2023/10/03 05:39:18;;;;;;;0.00;0.00;;;18.40;99.90;;;;;;5023139;28;20052;-83
2023/10/03 05:41:44;;;;;;;0.00;0.00;;;18.40;99.90;;;;;;5020525;28;20124;-82
2023/10/03 05:44:13;;;;;;;0.00;0.00;;;18.40;99.90;;;;;;5022968;28;20151;-82
2023/10/03 05:46:40;;;;;;;0.00;0.00;;;18.40;99.90;;;;;;5021116;28;20025;-84
2023/10/03 05:49:06;;;;;;;0.00;0.00;;;18.40;99.90;;;;;;5021177;28;20770;-82
2023/10/03 05:51:33;;;;;;;0.00;0.00;;;18.50;99.90;;;;;;5021031;28;20043;-82
2023/10/03 05:53:59;;;;;;;;;;;18.30;99.90;;;;;;5023361;28;20029;-83
2023/10/03 05:56:25;;;;;;;0.00;0.00;;;18.40;99.90;;;;;;5020697;28;19913;-82
2023/10/03 05:58:51;;;;;;;0.00;0.00;;;18.40;99.90;;;;;;5021992;28;20033;-80
2023/10/03 06:01:17;;;;;;;0.00;0.00;;;18.30;99.90;;;;;;5021604;28;20040;-81
2023/10/03 06:03:43;;;;;;;1.10;0.90;;;18.40;99.90;;;;;;5022022;28;20084;-81
2023/10/03 06:06:10;;;;;;;1.03;0.27;;;18.40;99.90;;;;;;5022283;28;20524;-79
2023/10/03 06:08:35;;;;;;;;;;;18.40;99.90;;;;;;5021867;28;20124;-84
2023/10/03 06:11:03;;;;;;;0.00;0.00;;;18.30;99.90;;;;;;5022013;28;20023;-82
2023/10/03 06:13:29;;;;;;;0.00;0.00;;;18.40;99.90;;;;;;5022019;28;20029;-84
2023/10/03 06:15:59;;;;;;;0.00;0.00;;;18.30;99.90;;;;;;5022169;28;20049;-84
2023/10/03 06:18:27;;;;;;;0.35;0.35;;;18.30;99.90;;;;;;5019313;28;20087;-83
2023/10/03 06:20:53;;;;;;;0.10;0.10;;;18.40;99.90;;;;;;5020873;28;20491;-83
2023/10/03 06:23:18;;;;;;;0.00;0.00;;;18.50;99.90;;;;;;5022818;28;20029;-84
2023/10/03 06:25:44;;;;;;;0.10;0.10;;;18.30;99.90;;;;;;5022359;28;20053;-85
2023/10/03 06:28:10;;;;;;;0.00;0.00;;;18.40;99.90;;;;;;5023017;28;20080;-85
2023/10/03 06:30:38;;;;;;;0.00;0.00;;;18.30;99.90;;;;;;5022883;28;20044;-85
2023/10/03 06:33:05;;;;;;;0.10;0.10;;;18.30;99.90;;;;;;5022248;28;20040;-85
2023/10/03 06:35:32;;;;;;;0.00;0.00;;;18.30;99.90;;;;;;5023008;28;20029;-85
2023/10/03 06:37:58;;;;;;;0.00;0.00;;;18.30;99.90;;;;;;5023095;28;20524;-85
2023/10/03 06:40:23;;;;;;;0.00;0.00;;;18.40;99.90;;;;;;5022582;28;20117;-84
2023/10/03 06:42:49;;;;;;;0.00;0.00;;;18.30;99.90;;;;;;5022500;28;20042;-85
2023/10/03 06:45:15;;;;;;;0.73;0.73;;;18.30;99.90;;;;;;5022440;28;20128;-85
2023/10/03 06:47:40;;;;;;;0.00;0.00;;;18.40;99.90;;;;;;5022968;28;20045;-85
2023/10/03 06:50:07;;;;;;;0.00;0.00;;;18.30;99.90;;;;;;5022618;28;20493;-85
2023/10/03 06:52:34;;;;;;;0.00;0.00;;;18.40;99.90;;;;;;5022285;28;20036;-84
2023/10/03 06:55:00;;;;;;;0.00;0.00;;;18.50;99.90;;;;;;5021092;28;20453;-85
2023/10/03 06:57:25;;;;;;;0.10;0.10;;;18.70;99.90;;;;;;5023424;28;20037;-83
2023/10/03 06:59:53;;;;;;;0.00;0.00;;;18.60;99.90;;;;;;5023057;28;20037;-84
2023/10/03 07:02:18;;;;;;;0.00;0.00;;;18.60;99.90;;;;;;5022814;28;20858;-84
2023/10/03 07:04:44;;;;;;;0.87;0.87;;;18.60;99.90;;;;;;5022532;28;20033;-85
2023/10/03 07:07:11;;;;;;;0.00;0.00;;;18.50;99.90;;;;;;5022630;28;20025;-84
2023/10/03 07:09:38;;;;;;;0.00;0.00;;;18.50;99.90;;;;;;5022051;28;20116;-85
2023/10/03 07:12:07;;;;;;;0.00;0.00;;;18.40;99.90;;;;;;5022687;28;20670;-85
2023/10/03 07:14:35;;;;;;;0.08;0.08;;;18.50;99.90;;;;;;5022575;28;20034;-85
2023/10/03 07:17:02;;;;;;;0.00;0.00;;;18.60;99.90;;;;;;5022777;28;20802;-85
2023/10/03 07:19:31;;;;;;;0.03;0.03;;;18.50;99.90;;;;;;5021075;28;20029;-84
2023/10/03 07:21:57;;;;;;;0.40;0.40;;;18.50;99.90;;;;;;5022158;28;20025;-85
2023/10/03 07:24:25;;;;;;;0.00;0.00;;;18.40;99.90;;;;;;5033006;28;20099;-85
2023/10/03 07:26:51;;;;;;;0.10;0.10;;;18.40;99.90;;;;;;5023040;28;20034;-84
2023/10/03 07:29:17;;;;;;;0.03;0.03;;;18.40;99.90;;;;;;5022437;28;20025;-86
2023/10/03 07:31:43;;;;;;;0.00;0.00;;;18.40;99.90;;;;;;5021936;28;20025;-85
2023/10/03 07:34:09;;;;;;;0.00;0.00;;;18.40;99.90;;;;;;5020902;28;20069;-84
2023/10/03 07:36:36;;;;;;;0.00;0.00;;;18.40;99.90;;;;;;5021839;28;20750;-85
2023/10/03 07:39:02;;;;;;;;;;;18.50;99.90;;;;;;5021888;28;20021;-84
2023/10/03 07:41:28;;;;;;;1.15;0.47;;;18.50;99.90;;;;;;5018622;28;19955;-85
2023/10/03 07:43:54;;;;;;;0.05;0.05;;;18.50;99.90;;;;;;5022432;28;20036;-86
2023/10/03 07:46:25;;;;;;;0.00;0.00;;;18.60;99.90;;;;;;5022429;28;20030;-84
2023/10/03 07:48:54;;;;;;;0.00;0.00;;;18.80;99.90;;;;;;5022089;28;20840;-85
2023/10/03 07:51:29;;;;;;;0.10;0.10;;;18.80;99.90;;;;;;5021609;28;20026;-84
2023/10/03 07:53:55;;;;;;;4.80;4.40;;;18.80;99.90;;;;;;5021835;28;20041;-85
2023/10/03 07:56:29;;;;;;;0.10;0.10;;;18.90;99.90;;;;;;5022224;28;20018;-84
2023/10/03 07:58:56;;;;;;;0.00;0.00;;;18.90;99.90;;;;;;5025514;28;20208;-85
2023/10/03 08:01:26;;;;;;;0.00;0.00;;;18.90;99.90;;;;;;5025577;28;20021;-85
2023/10/03 08:03:53;;;;;;;0.00;0.00;;;19.00;99.90;;;;;;5025743;28;20030;-85
2023/10/03 08:06:23;;;;;;;0.00;0.00;;;19.20;99.90;;;;;;5025342;28;20017;-85
2023/10/03 08:08:53;;;;;;;0.00;0.00;;;19.30;99.90;;;;;;5025049;28;20545;-84
2023/10/03 08:11:28;;;;;;;0.00;0.00;;;19.60;99.90;;;;;;5025533;28;20022;-84
2023/10/03 08:13:58;;;;;;;0.00;0.00;;;20.00;99.90;;;;;;5019167;28;20091;-84
2023/10/03 08:16:25;;;;;;;0.00;0.00;;;20.90;99.90;;;;;;5025445;28;20552;-85
2023/10/03 08:18:57;;;;;;;;;;;22.90;99.90;;;;;;5025786;28;20060;-84
2023/10/03 08:21:27;;;;;;;0.00;0.00;;;24.10;99.90;;;;;;5024992;28;19909;-85
2023/10/03 08:23:57;;;;;;;0.00;0.00;;;23.90;98.00;;;;;;5012311;28;20120;-83
2023/10/03 08:26:25;;;;;;;0.17;0.17;;;23.60;98.50;;;;;;5013736;28;20087;-83
2023/10/03 08:29:04;;;;;;;0.03;0.03;;;23.70;98.40;;;;;;5025910;28;20037;-85
2023/10/03 08:31:30;;;;;;;0.00;0.00;;;23.50;98.60;;;;;;5025405;28;20049;-83
2023/10/03 08:33:56;;;;;;;0.00;0.00;;;23.70;98.80;;;;;;5025403;28;20036;-83
2023/10/03 08:36:29;;;;;;;0.15;0.15;;;23.90;97.50;;;;;;5025184;28;20033;-84
2023/10/03 08:39:04;;;;;;;0.00;0.00;;;24.10;96.70;;;;;;5023084;28;20029;-83
2023/10/03 08:41:59;;;;;;;0.00;0.00;;;23.80;97.20;;;;;;5021510;28;20052;-83
2023/10/03 08:44:31;;;;;;;0.00;0.00;;;23.00;98.10;;;;;;5024947;28;20022;-84
2023/10/03 08:46:59;;;;;;;0.10;0.10;;;22.60;98.30;;;;;;5017080;28;20091;-84
2023/10/03 08:49:38;;;;;;;0.00;0.00;;;22.30;98.60;;;;;;5024580;28;20038;-84
2023/10/03 08:52:09;;;;;;;0.00;0.00;;;22.00;99.70;;;;;;5024324;28;20029;-83
2023/10/03 08:54:39;;;;;;;0.00;0.00;;;22.00;99.60;;;;;;5024567;28;20116;-84
2023/10/03 08:57:05;;;;;;;0.00;0.00;;;21.80;99.40;;;;;;5024369;28;20025;-83
2023/10/03 08:59:31;;;;;;;0.10;0.10;;;21.60;99.90;;;;;;5024636;28;20041;-84
2023/10/03 09:02:05;;;;;;;0.00;0.00;;;21.60;99.90;;;;;;5024826;28;20044;-83
2023/10/03 09:04:38;;;;;;;0.00;0.00;;;21.40;99.90;;;;;;5024310;28;20025;-85
2023/10/03 09:07:08;;;;;;;0.35;0.35;;;21.20;99.90;;;;;;5024420;28;20036;-83
2023/10/03 09:09:41;;;;;;;0.00;0.00;;;21.00;99.90;;;;;;5024268;28;20036;-83
2023/10/03 09:12:08;;;;;;;0.00;0.00;;;21.00;99.90;;;;;;5016041;28;20025;-84
2023/10/03 09:14:36;;;;;;;0.00;0.00;;;20.70;99.90;;;;;;5024695;28;20029;-84
2023/10/03 09:17:05;;;;;;;0.00;0.00;;;20.40;99.90;;;;;;5023775;28;20087;-84
2023/10/03 09:19:45;;;;;;;0.00;0.00;;;20.30;99.90;;;;;;5023863;28;20025;-84
2023/10/03 09:22:15;;;;;;;0.10;0.10;;;20.30;99.90;;;;;;5012447;28;20029;-83
2023/10/03 09:24:44;;;;;;;0.10;0.10;;;20.40;99.90;;;;;;5023648;28;20567;-84
2023/10/03 09:27:17;;;;;;;0.00;0.00;;;20.30;99.90;;;;;;5023746;28;20710;-84
2023/10/03 09:29:49;;;;;;;0.00;0.00;;;20.60;99.90;;;;;;5024135;28;20038;-83
2023/10/03 09:32:20;;;;;;;0.00;0.00;;;20.60;99.90;;;;;;5024029;28;20025;-83
2023/10/03 09:34:57;;;;;;;0.00;0.00;;;20.70;99.90;;;;;;5023653;28;20040;-83
2023/10/03 09:37:29;;;;;;;0.38;0.38;;;20.70;99.90;;;;;;5023302;28;20030;-84
2023/10/03 09:40:01;;;;;;;0.00;0.00;;;20.70;99.90;;;;;;5022317;28;20291;-84
2023/10/03 09:42:31;;;;;;;0.00;0.00;;;20.70;99.90;;;;;;5023623;28;20043;-83
2023/10/03 09:44:59;;;;;;;0.00;0.00;;;20.80;99.90;;;;;;5023522;28;20091;-84
2023/10/03 09:47:35;;;;;;;0.00;0.00;;;20.80;99.90;;;;;;5023505;28;20111;-84
2023/10/03 09:50:06;;;;;;;0.00;0.00;;;20.80;99.90;;;;;;5023780;28;20057;-83
2023/10/03 09:52:32;;;;;;;0.00;0.00;;;20.90;99.90;;;;;;5023645;28;20103;-84
2023/10/03 09:55:03;;;;;;;0.00;0.00;;;20.90;99.90;;;;;;5023583;28;20029;-83
2023/10/03 09:57:29;;;;;;;0.00;0.00;;;20.80;99.90;;;;;;5023566;28;20126;-83
2023/10/03 09:59:56;;;;;;;0.00;0.00;;;20.70;99.90;;;;;;5023619;28;20025;-84
2023/10/03 10:02:33;;;;;;;;;;;20.50;99.90;;;;;;5024286;28;20098;-83
2023/10/03 10:05:19;;;;;;;0.00;0.00;;;20.40;99.90;;;;;;5017996;28;19909;-84
2023/10/03 10:08:06;;;;;;;0.00;0.00;;;20.60;99.90;;;;;;5023345;28;20112;-84
2023/10/03 10:10:36;;;;;;;0.00;0.00;;;20.60;99.90;;;;;;5016459;28;20100;-84
2023/10/03 10:13:12;;;;;;;0.20;0.20;;;20.60;99.90;;;;;;5017426;28;20083;-84
2023/10/03 10:16:11;;;;;;;0.00;0.00;;;20.30;99.90;;;;;;5023245;28;20056;-84
2023/10/03 10:19:00;;;;;;;0.00;0.00;;;20.20;99.90;;;;;;5023089;28;20040;-83
2023/10/03 10:21:37;;;;;;;0.00;0.00;;;20.20;99.90;;;;;;5018783;28;20117;-84
2023/10/03 10:24:20;;;;;;;0.00;0.00;;;20.40;99.90;;;;;;5022802;28;20065;-84
2023/10/03 10:26:54;;;;;;;0.00;0.00;;;20.70;99.90;;;;;;5023630;28;20027;-83
2023/10/03 10:29:24;;;;;;;0.00;0.00;;;21.10;99.90;;;;;;5023441;28;20029;-83
2023/10/03 10:31:59;;;;;;;0.00;0.00;;;21.20;99.90;;;;;;5021621;28;20519;-83
2023/10/03 10:34:29;;;;;;;0.00;0.00;;;20.90;99.90;;;;;;5022760;28;20030;-83
2023/10/03 10:36:57;;;;;;;0.00;0.00;;;20.80;99.90;;;;;;5022794;28;20074;-84
2023/10/03 10:39:42;;;;;;;0.00;0.00;;;20.30;99.90;;;;;;5022621;28;20040;-83
2023/10/03 10:42:11;;;;;;;0.00;0.00;;;20.40;99.90;;;;;;5014488;28;20025;-83
2023/10/03 10:44:39;;;;;;;0.00;0.00;;;20.80;99.90;;;;;;5021205;28;20779;-83
2023/10/03 10:47:05;;;;;;;0.15;0.15;;;20.70;99.90;;;;;;5021375;28;20103;-84
2023/10/03 10:49:31;;;;;;;0.00;0.00;;;20.50;99.90;;;;;;5022821;28;20123;-83
2023/10/03 10:51:59;;;;;;;0.00;0.00;;;20.70;99.90;;;;;;5022526;28;20047;-83
2023/10/03 10:54:25;;;;;;;0.10;0.10;;;20.90;99.90;;;;;;5017685;28;20039;-83
2023/10/03 10:57:05;;;;;;;0.00;0.00;;;21.10;99.90;;;;;;5021104;28;20392;-84
2023/10/03 10:59:32;;;;;;;8.38;1.88;;;21.10;99.90;;;;;;5022673;28;20036;-83
2023/10/03 11:02:01;;;;;;;0.00;0.00;;;20.90;99.90;;;;;;5021995;28;20041;-83
2023/10/03 11:04:37;;;;;;;0.20;0.20;;;20.80;99.90;;;;;;5022612;28;20037;-85
2023/10/03 11:07:02;;;;;;;0.00;0.00;;;20.80;99.90;;;;;;5022196;28;20795;-84
2023/10/03 11:09:29;;;;;;;0.00;0.00;;;20.70;99.90;;;;;;5022472;28;20037;-84
2023/10/03 11:11:55;;;;;;;0.00;0.00;;;20.90;99.90;;;;;;5022476;28;20030;-84
2023/10/03 11:14:29;;;;;;;0.00;0.00;;;21.60;99.90;;;;;;5022750;28;20022;-84
2023/10/03 11:16:56;;;;;;;0.10;0.10;;;22.30;99.90;;;;;;5022783;28;20272;-84
2023/10/03 11:19:24;;;;;;;0.00;0.00;;;22.60;98.90;;;;;;5022547;28;20029;-84
2023/10/03 11:21:51;;;;;;;0.00;0.00;;;22.70;98.50;;;;;;5020916;28;20037;-84
2023/10/03 11:24:19;;;;;;;0.00;0.00;;;22.90;98.20;;;;;;5022428;28;20057;-85
2023/10/03 11:26:51;;;;;;;0.00;0.00;;;22.60;98.90;;;;;;5022172;28;20021;-85
2023/10/03 11:29:41;;;;;;;0.20;0.20;;;22.50;99.40;;;;;;5022988;28;20029;-85
2023/10/03 11:32:22;;;;;;;0.00;0.00;;;22.50;99.70;;;;;;5012638;28;20152;-85
2023/10/03 11:34:49;;;;;;;0.25;0.22;;;22.60;99.00;;;;;;5026352;28;20033;-85
2023/10/03 11:37:36;;;;;;;;;;;22.50;98.90;;;;;;5027420;28;20083;-85
2023/10/03 11:40:13;;;;;;;0.00;0.00;;;22.10;99.50;;;;;;5026662;28;19915;-85
2023/10/03 11:43:03;;;;;;;0.00;0.00;;;22.20;99.20;;;;;;5025972;28;20029;-84
2023/10/03 11:45:31;;;;;;;0.00;0.00;;;21.80;99.80;;;;;;5018899;28;20575;-84
2023/10/03 11:48:15;;;;;;;0.00;0.00;;;21.90;99.90;;;;;;5025773;28;20033;-84
2023/10/03 11:50:41;;;;;;;0.00;0.00;;;22.40;98.50;;;;;;5025449;28;20025;-84
2023/10/03 11:53:10;;;;;;;0.00;0.00;;;22.50;98.40;;;;;;5025152;28;20565;-85
2023/10/03 11:55:36;;;;;;;0.00;0.00;;;22.40;99.10;;;;;;5025405;28;20829;-84
2023/10/03 11:58:05;;;;;;;1.00;1.00;;;22.50;98.60;;;;;;5025296;28;20032;-85
2023/10/03 12:00:31;;;;;;;0.00;0.00;;;23.20;98.20;;;;;;5025487;28;20572;-84
2023/10/03 12:02:57;;;;;;;0.00;0.00;;;23.20;97.00;;;;;;5025419;28;20820;-84
2023/10/03 12:05:25;;;;;;;0.00;0.00;;;23.00;97.00;;;;;;5025338;28;20087;-85
2023/10/03 12:07:51;;;;;;;0.00;0.00;;;22.90;97.80;;;;;;5025621;28;20017;-85
2023/10/03 12:10:18;;;;;;;0.00;0.00;;;22.70;97.70;;;;;;5023967;28;20636;-84
2023/10/03 12:12:44;;;;;;;0.00;0.00;;;22.60;98.20;;;;;;5025569;28;20041;-85
2023/10/03 12:15:14;;;;;;;0.00;0.00;;;22.70;98.20;;;;;;5025151;28;20032;-84
2023/10/03 12:17:43;;;;;;;0.03;0.03;;;22.70;98.50;;;;;;5025304;28;20080;-84
2023/10/03 12:20:14;;;;;;;0.00;0.00;;;22.50;99.10;;;;;;5025063;28;20053;-85
2023/10/03 12:22:43;;;;;;;0.10;0.10;;;22.20;99.50;;;;;;5025402;28;20034;-85
2023/10/03 12:25:14;;;;;;;0.00;0.00;;;22.10;99.30;;;;;;5024608;28;20059;-85
2023/10/03 12:27:41;;;;;;;0.00;0.00;;;22.40;99.90;;;;;;5025101;28;20025;-84
2023/10/03 12:30:10;;;;;;;0.00;0.00;;;22.50;99.00;;;;;;5023605;28;20501;-85
2023/10/03 12:32:38;;;;;;;0.00;0.00;;;22.80;98.00;;;;;;5024725;28;20025;-84
2023/10/03 12:35:08;;;;;;;0.20;0.20;;;23.20;97.40;;;;;;5024822;28;20564;-84
2023/10/03 12:37:34;;;;;;;0.00;0.00;;;23.20;97.00;;;;;;5024419;28;20034;-85
2023/10/03 12:40:13;;;;;;;;;;;22.70;96.60;;;;;;5024931;28;20026;-86
2023/10/03 12:42:50;;;;;;;0.47;0.47;;;22.60;97.00;;;;;;5023950;28;19909;-85
2023/10/03 12:45:17;;;;;;;0.00;0.00;;;22.80;97.40;;;;;;5017134;28;20026;-85
2023/10/03 12:47:51;;;;;;;0.00;0.00;;;22.70;96.60;;;;;;5022776;28;20087;-85
2023/10/03 12:50:25;;;;;;;0.10;0.10;;;22.90;97.10;;;;;;5024739;28;20075;-84
2023/10/03 12:52:55;;;;;;;0.00;0.00;;;23.00;95.80;;;;;;5024490;28;20038;-85
2023/10/03 12:55:25;;;;;;;0.00;0.00;;;22.80;96.60;;;;;;5022808;28;20401;-85
2023/10/03 12:57:51;;;;;;;0.00;0.00;;;23.00;96.60;;;;;;5024512;28;20515;-85
2023/10/03 13:00:19;;;;;;;;;;;23.20;93.90;;;;;;5024858;28;20047;-85
2023/10/03 13:02:48;;;;;;;0.00;0.00;;;23.30;94.10;;;;;;5024750;28;19908;-86